Hauptseite
METAR-TAF:

METAR-TAF

Flughäfen :

Lahr, Deutschland

Flughafen Lahr

Breite: 48-22-09N, Länge: 007-49-40E, Höhe: 156 m

Beobachtung

Neuester Wetterbericht von vor 2 Stunden und 9 Minuten, um 09:20 UTC
Wind 11 kt aus Nord/Nordost
Temperatur 10°C
Luftfeuchtigkeit 76%
Luftdruck 1023 hPa
Sichtweite: 9000 m

METAR: EDTL 250920Z 03011KT 9000 NSC 10/06 Q1023

Zeit: 12:29 (11:29 UTC)

Prognose

Neuester Wetterbericht von vor 18 Stunden und 29 Minuten, um 17:00 UTC
Gültige Prognose vom 24 um 18 UTC bis 24 um 24 UTC
Wind 8 kt aus Nord/Nordost
Sichtweite 10 km oder mehr
keine Wolken unter 1500 m und keine Kumulonimbus oder Gewitterwolken

TAF: EDTL 241700Z 2418/2424 02008KT CAVOK

Wetterbeobachtungen und Prognosen von mehr als 4000 Flughäfen (METAR und TAF Bericht).

Die verfügbaren Stationen werden durch gelbe und rote Markierungen auf der Karte dargestellt.

Führen Sie die Maus auf sie, um den Namen der Station zu sehen.

Darauf klicken, um die Beobachtung von Wetterbeobachtungen und Prognosen zu sehen.

Um die Karte zu ändern : klicken Sie auf den grünen Tasten mit einem schwarzen Kreuz Zum Vergrößern, auf den grünen Button mit einem Gedankenstrich zu verkleinern, oder auf die grünen Pfeile für benachbarte Karten.


METAR-TAF: